createdAt,value
2016-12-11T00:01:36.798Z,1016.554
2016-12-11T00:04:31.370Z,1016.521
2016-12-11T00:07:26.241Z,1016.463
2016-12-11T00:13:15.313Z,1016.322
2016-12-11T00:16:09.760Z,1016.203
2016-12-11T00:19:04.126Z,1016.119
2016-12-11T00:21:58.635Z,1016.056
2016-12-11T00:24:53.044Z,1015.987
2016-12-11T00:30:42.141Z,1015.947
2016-12-11T00:33:36.657Z,1015.886
2016-12-11T00:36:31.216Z,1015.841
2016-12-11T00:39:25.611Z,1015.815
2016-12-11T00:42:20.134Z,1015.720
2016-12-11T00:45:14.649Z,1015.633
2016-12-11T00:48:09.060Z,1015.539
2016-12-11T00:51:03.549Z,1015.462
2016-12-11T00:53:57.988Z,1015.407
2016-12-11T00:56:52.591Z,1015.294
2016-12-11T00:59:47.048Z,1015.273
2016-12-11T01:02:41.451Z,1015.230
2016-12-11T01:05:35.997Z,1015.175
2016-12-11T01:11:24.747Z,1015.141
2016-12-11T01:14:19.253Z,1015.117
2016-12-11T01:17:13.581Z,1015.133
2016-12-11T01:20:07.905Z,1015.136
2016-12-11T01:23:02.317Z,1015.073
2016-12-11T01:25:56.677Z,1015.036
2016-12-11T01:28:51.141Z,1015.016
2016-12-11T01:31:45.500Z,1014.914
2016-12-11T01:34:40.038Z,1014.865
2016-12-11T01:40:28.970Z,1014.829
2016-12-11T01:43:23.285Z,1014.760
2016-12-11T01:46:17.599Z,1014.717
2016-12-11T01:49:12.129Z,1014.666
2016-12-11T01:55:01.027Z,1014.486
2016-12-11T01:57:55.402Z,1014.402
2016-12-11T02:00:49.903Z,1014.286
2016-12-11T02:03:44.609Z,1014.149
2016-12-11T02:06:39.030Z,1014.040
2016-12-11T02:09:33.449Z,1014.031
2016-12-11T02:12:27.939Z,1013.981
2016-12-11T02:15:22.388Z,1013.883
2016-12-11T02:18:16.874Z,1013.823
2016-12-11T02:21:11.362Z,1013.742
2016-12-11T02:24:05.829Z,1013.718
2016-12-11T02:27:00.215Z,1013.689
2016-12-11T02:29:54.695Z,1013.662
2016-12-11T02:32:49.209Z,1013.654
2016-12-11T02:41:32.678Z,1013.387
2016-12-11T02:44:27.180Z,1013.300
2016-12-11T02:47:21.724Z,1013.263
2016-12-11T02:50:16.082Z,1013.164
2016-12-11T02:53:10.507Z,1013.132
2016-12-11T02:58:59.495Z,1012.982
2016-12-11T03:01:54.017Z,1012.869
2016-12-11T03:07:43.088Z,1012.711
2016-12-11T03:10:37.477Z,1012.583
2016-12-11T03:13:31.943Z,1012.494
2016-12-11T03:16:26.344Z,1012.414
2016-12-11T03:19:21.304Z,1012.276
2016-12-11T03:22:15.770Z,1012.187
2016-12-11T03:25:10.175Z,1012.133
2016-12-11T03:28:05.041Z,1012.017
2016-12-11T03:30:59.653Z,1011.944
2016-12-11T03:33:54.037Z,1011.774
2016-12-11T03:36:48.822Z,1011.646
2016-12-11T03:39:43.199Z,1011.623
2016-12-11T03:42:37.683Z,1011.576
2016-12-11T03:48:26.524Z,1011.444
2016-12-11T03:51:20.937Z,1011.331
2016-12-11T03:54:15.347Z,1011.295
2016-12-11T04:00:04.269Z,1011.307
2016-12-11T04:02:58.675Z,1011.256
2016-12-11T04:08:47.424Z,1011.115
2016-12-11T04:14:36.421Z,1010.916
2016-12-11T04:20:25.195Z,1010.672
2016-12-11T04:23:19.692Z,1010.582
2016-12-11T04:26:14.108Z,1010.487
2016-12-11T04:29:08.545Z,1010.377
2016-12-11T04:32:02.794Z,1010.304
2016-12-11T04:34:57.181Z,1010.231
2016-12-11T04:37:51.662Z,1010.150
2016-12-11T04:40:46.033Z,1010.113
2016-12-11T04:43:40.383Z,1009.963
2016-12-11T04:46:34.816Z,1009.878
2016-12-11T04:49:29.233Z,1009.820
2016-12-11T04:52:23.658Z,1009.794
2016-12-11T04:55:18.032Z,1009.672
2016-12-11T04:58:12.371Z,1009.632
2016-12-11T05:04:01.296Z,1009.439
2016-12-11T05:06:55.554Z,1009.393
2016-12-11T05:12:44.318Z,1009.203
2016-12-11T05:15:38.753Z,1009.210
2016-12-11T05:18:33.235Z,1009.242
2016-12-11T05:21:27.719Z,1008.995
2016-12-11T05:24:22.029Z,1008.935
2016-12-11T05:27:16.384Z,1008.849
2016-12-11T05:33:05.085Z,1008.675
2016-12-11T05:35:59.420Z,1008.596
2016-12-11T05:38:53.791Z,1008.441
2016-12-11T05:41:48.203Z,1008.321
2016-12-11T05:47:37.090Z,1008.211
2016-12-11T05:50:31.635Z,1008.202
2016-12-11T05:53:26.389Z,1008.177
2016-12-11T05:56:20.804Z,1008.157
2016-12-11T05:59:15.130Z,1008.073
2016-12-11T06:02:09.534Z,1008.058
2016-12-11T06:05:03.995Z,1007.990
2016-12-11T06:07:58.431Z,1007.890
2016-12-11T06:16:41.526Z,1007.757
2016-12-11T06:19:35.882Z,1007.672
2016-12-11T06:22:30.190Z,1007.599
2016-12-11T06:25:24.507Z,1007.508
2016-12-11T06:28:18.944Z,1007.467
2016-12-11T06:31:13.305Z,1007.388
2016-12-11T06:37:02.115Z,1007.381
2016-12-11T06:39:56.774Z,1007.313
2016-12-11T06:42:51.131Z,1007.317
2016-12-11T06:45:45.633Z,1007.218
2016-12-11T06:48:40.020Z,1007.162
2016-12-11T06:51:34.513Z,1007.164
2016-12-11T06:54:28.885Z,1007.060
2016-12-11T06:57:23.309Z,1006.997
2016-12-11T07:00:17.862Z,1006.984
2016-12-11T07:03:12.360Z,1006.883
2016-12-11T07:06:06.854Z,1006.822
2016-12-11T07:09:01.224Z,1006.805
2016-12-11T07:11:55.699Z,1006.760
2016-12-11T07:14:50.021Z,1006.705
2016-12-11T07:17:44.535Z,1006.745
2016-12-11T07:20:38.834Z,1006.669
2016-12-11T07:23:33.216Z,1006.648
2016-12-11T07:26:27.598Z,1006.603
2016-12-11T07:29:22.046Z,1006.514
2016-12-11T07:35:10.886Z,1006.399
2016-12-11T07:40:59.812Z,1006.292
2016-12-11T07:43:54.228Z,1006.321
2016-12-11T07:46:48.607Z,1006.358
2016-12-11T07:49:43.028Z,1006.384
2016-12-11T07:52:37.492Z,1006.343
2016-12-11T07:55:31.920Z,1006.250
2016-12-11T07:58:26.401Z,1006.246
2016-12-11T08:01:20.734Z,1006.202
2016-12-11T08:10:04.509Z,1006.177
2016-12-11T08:12:58.921Z,1006.193
2016-12-11T08:15:53.395Z,1006.211
2016-12-11T08:18:47.810Z,1006.132
2016-12-11T08:21:42.237Z,1006.228
2016-12-11T08:24:36.654Z,1006.236
2016-12-11T08:27:31.111Z,1006.207
2016-12-11T08:30:25.563Z,1006.087
2016-12-11T08:33:20.068Z,1006.090
2016-12-11T08:36:14.586Z,1006.111
2016-12-11T08:39:08.972Z,1006.023
2016-12-11T08:42:03.644Z,1006.106
2016-12-11T08:44:58.096Z,1006.091
2016-12-11T08:47:52.568Z,1006.158
2016-12-11T08:50:46.859Z,1006.217
2016-12-11T08:53:41.329Z,1006.222
2016-12-11T08:56:35.707Z,1006.175
2016-12-11T08:59:30.184Z,1006.236
2016-12-11T09:02:24.716Z,1006.182
2016-12-11T09:05:19.185Z,1006.285
2016-12-11T09:08:13.544Z,1006.279
2016-12-11T09:11:08.064Z,1006.313
2016-12-11T09:14:02.511Z,1006.312
2016-12-11T09:16:56.989Z,1006.409
2016-12-11T09:22:45.916Z,1006.535
2016-12-11T09:25:40.402Z,1006.548
2016-12-11T09:34:23.836Z,1006.893
2016-12-11T09:37:18.311Z,1006.996
2016-12-11T09:40:12.737Z,1007.116
2016-12-11T09:43:07.154Z,1007.252
2016-12-11T09:46:01.624Z,1007.350
2016-12-11T09:48:56.029Z,1007.611
2016-12-11T09:51:50.539Z,1007.779
2016-12-11T09:54:45.399Z,1007.975
2016-12-11T09:57:39.875Z,1008.276
2016-12-11T10:00:34.390Z,1008.486
2016-12-11T10:03:28.869Z,1008.687
2016-12-11T10:06:23.150Z,1008.808
2016-12-11T10:09:17.581Z,1008.960
2016-12-11T10:12:11.885Z,1009.118
2016-12-11T10:15:06.319Z,1009.238
2016-12-11T10:18:00.673Z,1009.375
2016-12-11T10:20:54.974Z,1009.479
2016-12-11T10:23:49.403Z,1009.676
2016-12-11T10:26:43.893Z,1009.710
2016-12-11T10:29:38.336Z,1009.821
2016-12-11T10:32:32.795Z,1009.956
2016-12-11T10:35:27.697Z,1010.076
2016-12-11T10:41:16.457Z,1010.328
2016-12-11T10:44:10.829Z,1010.373
2016-12-11T10:47:05.124Z,1010.492
2016-12-11T10:49:59.507Z,1010.556
2016-12-11T10:52:53.913Z,1010.508
2016-12-11T10:55:48.363Z,1010.558
2016-12-11T10:58:42.770Z,1010.629
2016-12-11T11:01:37.156Z,1010.724
2016-12-11T11:04:31.557Z,1010.788
2016-12-11T11:07:26.012Z,1010.847
2016-12-11T11:10:20.348Z,1010.970
2016-12-11T11:13:14.672Z,1011.013
2016-12-11T11:16:09.032Z,1011.145
2016-12-11T11:19:03.334Z,1011.256
2016-12-11T11:21:57.571Z,1011.346
2016-12-11T11:27:46.393Z,1011.401
2016-12-11T11:30:41.380Z,1011.455
2016-12-11T11:33:35.654Z,1011.512
2016-12-11T11:36:30.100Z,1011.498
2016-12-11T11:39:24.486Z,1011.512
2016-12-11T11:42:19.328Z,1011.552
2016-12-11T11:45:13.690Z,1011.525
2016-12-11T11:48:08.025Z,1011.531
2016-12-11T11:51:02.349Z,1011.606
2016-12-11T11:53:56.744Z,1011.677
2016-12-11T11:59:46.047Z,1011.744
2016-12-11T12:02:40.540Z,1011.817
2016-12-11T12:05:34.932Z,1011.881
2016-12-11T12:08:29.271Z,1011.870
2016-12-11T12:14:18.064Z,1011.948
2016-12-11T12:17:12.415Z,1011.912
2016-12-11T12:20:06.825Z,1012.013
2016-12-11T12:23:01.244Z,1012.061
2016-12-11T12:28:50.009Z,1012.093
2016-12-11T12:34:38.713Z,1012.099
2016-12-11T12:37:33.157Z,1012.112
2016-12-11T12:40:27.520Z,1012.127
2016-12-11T12:43:21.799Z,1012.083
2016-12-11T12:46:16.221Z,1012.122
2016-12-11T12:49:10.630Z,1012.172
2016-12-11T12:52:04.987Z,1012.215
2016-12-11T12:54:59.313Z,1012.159
2016-12-11T12:57:53.780Z,1012.085
2016-12-11T13:00:48.198Z,1012.177
2016-12-11T13:09:31.401Z,1012.165
2016-12-11T13:12:25.796Z,1012.201
2016-12-11T13:15:20.080Z,1012.200
2016-12-11T13:18:14.927Z,1012.187
2016-12-11T13:21:09.363Z,1012.130
2016-12-11T13:24:03.726Z,1012.185
2016-12-11T13:26:58.201Z,1012.251
2016-12-11T13:32:46.973Z,1012.183
2016-12-11T13:35:41.342Z,1012.180
2016-12-11T13:38:35.769Z,1012.195
2016-12-11T13:44:24.765Z,1012.291
2016-12-11T13:50:13.580Z,1012.257
2016-12-11T13:53:08.004Z,1012.305
2016-12-11T13:56:02.491Z,1012.264
2016-12-11T13:58:56.847Z,1012.295
2016-12-11T14:04:45.745Z,1012.284
2016-12-11T14:07:40.245Z,1012.354
2016-12-11T14:10:34.691Z,1012.418
2016-12-11T14:13:29.158Z,1012.390
2016-12-11T14:16:23.444Z,1012.396
2016-12-11T14:19:17.958Z,1012.484
2016-12-11T14:22:12.398Z,1012.446
2016-12-11T14:25:06.908Z,1012.485
2016-12-11T14:28:01.364Z,1012.498
2016-12-11T14:30:55.704Z,1012.570
2016-12-11T14:33:50.173Z,1012.652
2016-12-11T14:36:44.742Z,1012.668
2016-12-11T14:42:33.517Z,1012.825
2016-12-11T14:45:27.856Z,1012.792
2016-12-11T14:48:22.354Z,1012.815
2016-12-11T14:51:16.686Z,1012.809
2016-12-11T14:54:11.100Z,1012.823
2016-12-11T14:57:05.474Z,1012.833
2016-12-11T14:59:59.827Z,1012.776
2016-12-11T15:02:54.290Z,1012.825
2016-12-11T15:05:48.799Z,1012.779
2016-12-11T15:11:37.709Z,1012.907
2016-12-11T15:14:32.081Z,1012.925
2016-12-11T15:17:26.364Z,1012.910
2016-12-11T15:20:20.660Z,1012.951
2016-12-11T15:23:15.100Z,1012.945
2016-12-11T15:26:09.566Z,1013.099
2016-12-11T15:29:04.021Z,1013.078
2016-12-11T15:34:52.970Z,1013.066
2016-12-11T15:37:47.390Z,1013.115
2016-12-11T15:40:41.700Z,1013.130
2016-12-11T15:46:30.357Z,1013.174
2016-12-11T15:49:24.813Z,1013.184
2016-12-11T15:52:19.216Z,1013.148
2016-12-11T15:55:13.548Z,1013.177
2016-12-11T15:58:08.298Z,1013.201
2016-12-11T16:01:02.732Z,1013.228
2016-12-11T16:09:45.981Z,1013.364
2016-12-11T16:12:40.427Z,1013.326
2016-12-11T16:15:34.882Z,1013.306
2016-12-11T16:21:23.889Z,1013.339
2016-12-11T16:24:18.242Z,1013.358
2016-12-11T16:27:12.568Z,1013.409
2016-12-11T16:30:07.078Z,1013.482
2016-12-11T16:33:01.402Z,1013.544
2016-12-11T16:35:55.765Z,1013.555
2016-12-11T16:38:50.073Z,1013.612
2016-12-11T16:41:44.386Z,1013.661
2016-12-11T16:44:38.741Z,1013.669
2016-12-11T16:47:33.024Z,1013.642
2016-12-11T16:50:27.343Z,1013.581
2016-12-11T16:53:21.764Z,1013.649
2016-12-11T16:56:16.170Z,1013.622
2016-12-11T16:59:10.552Z,1013.625
2016-12-11T17:02:04.780Z,1013.680
2016-12-11T17:07:53.672Z,1013.844
2016-12-11T17:13:42.386Z,1013.932
2016-12-11T17:16:36.782Z,1013.971
2016-12-11T17:19:31.161Z,1013.979
2016-12-11T17:22:25.533Z,1014.016
2016-12-11T17:28:14.224Z,1014.038
2016-12-11T17:31:08.483Z,1014.022
2016-12-11T17:34:02.911Z,1014.041
2016-12-11T17:39:51.601Z,1014.035
2016-12-11T17:42:46.000Z,1013.943
2016-12-11T17:45:40.399Z,1013.936
2016-12-11T17:48:34.827Z,1013.977
2016-12-11T17:51:29.230Z,1013.937
2016-12-11T17:54:23.682Z,1013.897
2016-12-11T17:57:18.041Z,1013.919
2016-12-11T18:00:12.703Z,1013.872
2016-12-11T18:06:01.325Z,1013.924
2016-12-11T18:08:55.635Z,1013.956
2016-12-11T18:11:50.131Z,1014.018
2016-12-11T18:17:38.804Z,1014.022
2016-12-11T18:20:33.183Z,1013.986
2016-12-11T18:23:28.047Z,1014.020
2016-12-11T18:26:22.337Z,1013.937
2016-12-11T18:29:16.932Z,1013.991
2016-12-11T18:32:11.287Z,1013.998
2016-12-11T18:35:05.622Z,1013.990
2016-12-11T18:40:54.501Z,1014.020
2016-12-11T18:46:43.099Z,1014.062
2016-12-11T18:49:37.534Z,1014.008
2016-12-11T18:55:26.674Z,1014.082
2016-12-11T18:58:20.940Z,1014.068
2016-12-11T19:01:15.516Z,1014.069
2016-12-11T19:07:04.251Z,1014.046
2016-12-11T19:12:52.862Z,1014.060
2016-12-11T19:15:47.345Z,1014.072
2016-12-11T19:18:41.739Z,1014.062
2016-12-11T19:21:36.124Z,1014.051
2016-12-11T19:24:30.484Z,1014.062
2016-12-11T19:27:24.877Z,1014.086
2016-12-11T19:33:13.780Z,1014.099
2016-12-11T19:36:08.150Z,1014.150
2016-12-11T19:39:02.499Z,1014.159
2016-12-11T19:44:51.331Z,1014.177
2016-12-11T19:50:40.081Z,1014.220
2016-12-11T19:53:34.484Z,1014.156
2016-12-11T19:56:28.931Z,1014.186
2016-12-11T19:59:23.339Z,1014.182
2016-12-11T20:02:17.838Z,1014.171
2016-12-11T20:11:00.879Z,1014.274
2016-12-11T20:16:49.617Z,1014.272
2016-12-11T20:22:38.538Z,1014.344
2016-12-11T20:25:32.881Z,1014.348
2016-12-11T20:28:27.263Z,1014.322
2016-12-11T20:31:21.752Z,1014.309
2016-12-11T20:34:16.072Z,1014.334
2016-12-11T20:37:10.437Z,1014.318
2016-12-11T20:40:04.752Z,1014.330
2016-12-11T20:42:59.204Z,1014.343
2016-12-11T20:45:53.850Z,1014.305
2016-12-11T20:48:48.166Z,1014.285
2016-12-11T20:51:43.137Z,1014.278
2016-12-11T20:54:37.556Z,1014.301
2016-12-11T20:57:32.189Z,1014.292
2016-12-11T21:00:26.581Z,1014.312
2016-12-11T21:03:20.842Z,1014.340
2016-12-11T21:09:09.651Z,1014.298
2016-12-11T21:12:04.034Z,1014.324
2016-12-11T21:14:58.535Z,1014.391
2016-12-11T21:17:52.982Z,1014.397
2016-12-11T21:20:47.443Z,1014.369
2016-12-11T21:23:41.964Z,1014.334
2016-12-11T21:26:36.438Z,1014.404
2016-12-11T21:32:25.242Z,1014.367
2016-12-11T21:35:19.716Z,1014.328
2016-12-11T21:38:14.122Z,1014.330
2016-12-11T21:41:08.537Z,1014.360
2016-12-11T21:44:02.960Z,1014.368
2016-12-11T21:46:57.363Z,1014.402
2016-12-11T21:49:51.795Z,1014.398
2016-12-11T21:52:46.130Z,1014.428
2016-12-11T21:55:40.550Z,1014.428
2016-12-11T21:58:34.962Z,1014.379
2016-12-11T22:01:29.268Z,1014.457
2016-12-11T22:04:23.627Z,1014.465
2016-12-11T22:07:18.004Z,1014.458
2016-12-11T22:10:12.464Z,1014.516
2016-12-11T22:13:06.847Z,1014.459
2016-12-11T22:16:01.188Z,1014.413
2016-12-11T22:18:55.547Z,1014.463
2016-12-11T22:21:49.982Z,1014.518
2016-12-11T22:24:44.513Z,1014.450
2016-12-11T22:27:38.927Z,1014.529
2016-12-11T22:30:33.376Z,1014.495
2016-12-11T22:33:27.791Z,1014.509
2016-12-11T22:36:22.372Z,1014.493
2016-12-11T22:39:16.578Z,1014.487
2016-12-11T22:42:11.032Z,1014.465
2016-12-11T22:45:05.446Z,1014.468
2016-12-11T22:47:59.908Z,1014.422
2016-12-11T22:50:54.290Z,1014.448
2016-12-11T22:53:48.845Z,1014.447
2016-12-11T22:59:37.799Z,1014.485
2016-12-11T23:02:32.078Z,1014.458
2016-12-11T23:05:26.516Z,1014.498
2016-12-11T23:08:20.940Z,1014.540
2016-12-11T23:11:15.306Z,1014.506
2016-12-11T23:14:09.709Z,1014.513
2016-12-11T23:19:58.466Z,1014.418
2016-12-11T23:22:52.840Z,1014.361
2016-12-11T23:25:47.187Z,1014.407
2016-12-11T23:28:41.635Z,1014.333
2016-12-11T23:31:35.997Z,1014.319
2016-12-11T23:34:30.465Z,1014.359
2016-12-11T23:37:24.838Z,1014.366
2016-12-11T23:43:13.738Z,1014.325
2016-12-11T23:46:08.068Z,1014.355
2016-12-11T23:49:02.363Z,1014.306
2016-12-11T23:51:56.778Z,1014.326
2016-12-11T23:57:45.470Z,1014.408
